sensor_id;sensor_type;location;lat;lon;timestamp;temperature;humidity
10451;DHT22;5273;51.290;6.918;2022-08-01T00:01:31;20.60;99.90
10451;DHT22;5273;51.290;6.918;2022-08-01T00:04:00;20.60;99.90
10451;DHT22;5273;51.290;6.918;2022-08-01T00:06:27;20.60;99.90
10451;DHT22;5273;51.290;6.918;2022-08-01T00:08:53;20.70;99.90
10451;DHT22;5273;51.290;6.918;2022-08-01T00:11:20;20.60;99.90
10451;DHT22;5273;51.290;6.918;2022-08-01T00:13:47;20.70;99.90
10451;DHT22;5273;51.290;6.918;2022-08-01T00:16:14;20.70;99.90
10451;DHT22;5273;51.290;6.918;2022-08-01T00:18:42;20.60;99.90
10451;DHT22;5273;51.290;6.918;2022-08-01T00:21:10;20.60;99.90
10451;DHT22;5273;51.290;6.918;2022-08-01T00:23:37;20.60;99.90
10451;DHT22;5273;51.290;6.918;2022-08-01T00:26:04;20.50;99.90
10451;DHT22;5273;51.290;6.918;2022-08-01T00:28:31;20.50;99.90
10451;DHT22;5273;51.290;6.918;2022-08-01T00:30:57;20.50;99.90
10451;DHT22;5273;51.290;6.918;2022-08-01T00:33:24;20.40;99.90
10451;DHT22;5273;51.290;6.918;2022-08-01T00:35:51;20.40;99.90
10451;DHT22;5273;51.290;6.918;2022-08-01T00:38:19;20.40;99.90
10451;DHT22;5273;51.290;6.918;2022-08-01T00:40:46;20.30;99.90
10451;DHT22;5273;51.290;6.918;2022-08-01T00:43:13;20.30;99.90
10451;DHT22;5273;51.290;6.918;2022-08-01T00:45:40;20.30;99.90
10451;DHT22;5273;51.290;6.918;2022-08-01T00:48:07;20.30;99.90
10451;DHT22;5273;51.290;6.918;2022-08-01T00:50:34;20.30;99.90
10451;DHT22;5273;51.290;6.918;2022-08-01T00:53:02;20.30;99.90
10451;DHT22;5273;51.290;6.918;2022-08-01T00:55:31;20.30;99.90
10451;DHT22;5273;51.290;6.918;2022-08-01T00:57:58;20.30;99.90
10451;DHT22;5273;51.290;6.918;2022-08-01T01:00:25;20.30;99.90
10451;DHT22;5273;51.290;6.918;2022-08-01T01:02:52;20.20;99.90
10451;DHT22;5273;51.290;6.918;2022-08-01T01:05:19;20.20;99.90
10451;DHT22;5273;51.290;6.918;2022-08-01T01:07:50;20.20;99.90
10451;DHT22;5273;51.290;6.918;2022-08-01T01:10:24;20.20;99.90
10451;DHT22;5273;51.290;6.918;2022-08-01T01:12:58;20.20;99.90
10451;DHT22;5273;51.290;6.918;2022-08-01T01:15:30;20.20;99.90
10451;DHT22;5273;51.290;6.918;2022-08-01T01:18:00;20.20;99.90
10451;DHT22;5273;51.290;6.918;2022-08-01T01:20:30;20.30;99.90
10451;DHT22;5273;51.290;6.918;2022-08-01T01:23:12;20.20;99.90
10451;DHT22;5273;51.290;6.918;2022-08-01T01:26:14;20.30;99.90
10451;DHT22;5273;51.290;6.918;2022-08-01T01:28:57;20.20;99.90
10451;DHT22;5273;51.290;6.918;2022-08-01T01:31:27;20.20;99.90
10451;DHT22;5273;51.290;6.918;2022-08-01T01:33:57;20.20;99.90
10451;DHT22;5273;51.290;6.918;2022-08-01T01:36:26;20.20;99.90
10451;DHT22;5273;51.290;6.918;2022-08-01T01:38:54;20.20;99.90
10451;DHT22;5273;51.290;6.918;2022-08-01T01:41:22;20.20;99.90
10451;DHT22;5273;51.290;6.918;2022-08-01T01:43:52;20.10;99.90
10451;DHT22;5273;51.290;6.918;2022-08-01T01:46:23;20.10;99.90
10451;DHT22;5273;51.290;6.918;2022-08-01T01:48:54;20.00;99.90
10451;DHT22;5273;51.290;6.918;2022-08-01T01:51:24;20.10;99.90
10451;DHT22;5273;51.290;6.918;2022-08-01T01:53:53;20.00;99.90
10451;DHT22;5273;51.290;6.918;2022-08-01T01:56:20;20.00;99.90
10451;DHT22;5273;51.290;6.918;2022-08-01T01:58:50;20.00;99.90
10451;DHT22;5273;51.290;6.918;2022-08-01T02:01:19;20.00;99.90
10451;DHT22;5273;51.290;6.918;2022-08-01T02:03:48;19.90;99.90
10451;DHT22;5273;51.290;6.918;2022-08-01T02:06:16;19.90;99.90
10451;DHT22;5273;51.290;6.918;2022-08-01T02:08:44;19.90;99.90
10451;DHT22;5273;51.290;6.918;2022-08-01T02:11:11;19.90;99.90
10451;DHT22;5273;51.290;6.918;2022-08-01T02:13:47;19.90;99.90
10451;DHT22;5273;51.290;6.918;2022-08-01T02:16:15;19.90;99.90
10451;DHT22;5273;51.290;6.918;2022-08-01T02:18:45;19.90;99.90
10451;DHT22;5273;51.290;6.918;2022-08-01T02:21:16;19.90;99.90
10451;DHT22;5273;51.290;6.918;2022-08-01T02:23:44;19.90;99.90
10451;DHT22;5273;51.290;6.918;2022-08-01T02:26:14;19.90;99.90
10451;DHT22;5273;51.290;6.918;2022-08-01T02:28:47;19.90;99.90
10451;DHT22;5273;51.290;6.918;2022-08-01T02:31:18;19.90;99.90
10451;DHT22;5273;51.290;6.918;2022-08-01T02:33:53;19.90;99.90
10451;DHT22;5273;51.290;6.918;2022-08-01T02:36:21;19.90;99.90
10451;DHT22;5273;51.290;6.918;2022-08-01T02:38:50;19.90;99.90
10451;DHT22;5273;51.290;6.918;2022-08-01T02:41:21;19.90;99.90
10451;DHT22;5273;51.290;6.918;2022-08-01T02:43:50;19.90;99.90
10451;DHT22;5273;51.290;6.918;2022-08-01T02:46:22;19.90;99.90
10451;DHT22;5273;51.290;6.918;2022-08-01T02:48:52;19.90;99.90
10451;DHT22;5273;51.290;6.918;2022-08-01T02:51:22;19.90;99.90
10451;DHT22;5273;51.290;6.918;2022-08-01T02:53:50;19.90;99.90
10451;DHT22;5273;51.290;6.918;2022-08-01T02:56:19;19.90;99.90
10451;DHT22;5273;51.290;6.918;2022-08-01T02:58:47;19.90;99.90
10451;DHT22;5273;51.290;6.918;2022-08-01T03:01:16;19.90;99.90
10451;DHT22;5273;51.290;6.918;2022-08-01T03:03:45;19.80;99.90
10451;DHT22;5273;51.290;6.918;2022-08-01T03:06:14;19.80;99.90
10451;DHT22;5273;51.290;6.918;2022-08-01T03:08:42;19.80;99.90
10451;DHT22;5273;51.290;6.918;2022-08-01T03:11:11;19.80;99.90
10451;DHT22;5273;51.290;6.918;2022-08-01T03:13:40;19.80;99.90
10451;DHT22;5273;51.290;6.918;2022-08-01T03:16:09;19.80;99.90
10451;DHT22;5273;51.290;6.918;2022-08-01T03:18:37;19.80;99.90
10451;DHT22;5273;51.290;6.918;2022-08-01T03:21:06;19.80;99.90
10451;DHT22;5273;51.290;6.918;2022-08-01T03:23:36;19.80;99.90
10451;DHT22;5273;51.290;6.918;2022-08-01T03:26:04;19.80;99.90
10451;DHT22;5273;51.290;6.918;2022-08-01T03:28:31;19.80;99.90
10451;DHT22;5273;51.290;6.918;2022-08-01T03:30:59;19.80;99.90
10451;DHT22;5273;51.290;6.918;2022-08-01T03:33:26;19.80;99.90
10451;DHT22;5273;51.290;6.918;2022-08-01T03:35:54;19.80;99.90
10451;DHT22;5273;51.290;6.918;2022-08-01T03:38:25;19.80;99.90
10451;DHT22;5273;51.290;6.918;2022-08-01T03:40:58;19.80;99.90
10451;DHT22;5273;51.290;6.918;2022-08-01T03:43:30;19.80;99.90
10451;DHT22;5273;51.290;6.918;2022-08-01T03:46:03;19.90;99.90
10451;DHT22;5273;51.290;6.918;2022-08-01T03:48:36;19.80;99.90
10451;DHT22;5273;51.290;6.918;2022-08-01T03:51:05;19.80;99.90
10451;DHT22;5273;51.290;6.918;2022-08-01T03:53:33;19.80;99.90
10451;DHT22;5273;51.290;6.918;2022-08-01T03:56:02;19.80;99.90
10451;DHT22;5273;51.290;6.918;2022-08-01T03:58:34;19.70;99.90
10451;DHT22;5273;51.290;6.918;2022-08-01T04:01:02;19.80;99.90
10451;DHT22;5273;51.290;6.918;2022-08-01T04:03:29;19.70;99.90
10451;DHT22;5273;51.290;6.918;2022-08-01T04:05:56;19.80;99.90
10451;DHT22;5273;51.290;6.918;2022-08-01T04:08:23;19.80;99.90
10451;DHT22;5273;51.290;6.918;2022-08-01T04:11:00;19.80;99.90
10451;DHT22;5273;51.290;6.918;2022-08-01T04:13:28;19.80;99.90
10451;DHT22;5273;51.290;6.918;2022-08-01T04:15:55;19.80;99.90
10451;DHT22;5273;51.290;6.918;2022-08-01T04:18:22;19.80;99.90
10451;DHT22;5273;51.290;6.918;2022-08-01T04:20:48;19.80;99.90
10451;DHT22;5273;51.290;6.918;2022-08-01T04:23:17;19.80;99.90
10451;DHT22;5273;51.290;6.918;2022-08-01T04:25:45;19.80;99.90
10451;DHT22;5273;51.290;6.918;2022-08-01T04:28:14;19.80;99.90
10451;DHT22;5273;51.290;6.918;2022-08-01T04:30:46;19.90;99.90
10451;DHT22;5273;51.290;6.918;2022-08-01T04:33:15;19.90;99.90
10451;DHT22;5273;51.290;6.918;2022-08-01T04:35:44;19.90;99.90
10451;DHT22;5273;51.290;6.918;2022-08-01T04:38:15;19.90;99.90
10451;DHT22;5273;51.290;6.918;2022-08-01T04:40:44;20.00;99.90
10451;DHT22;5273;51.290;6.918;2022-08-01T04:43:12;20.00;99.90
10451;DHT22;5273;51.290;6.918;2022-08-01T04:45:39;20.00;99.90
10451;DHT22;5273;51.290;6.918;2022-08-01T04:48:08;20.00;99.90
10451;DHT22;5273;51.290;6.918;2022-08-01T04:50:36;20.00;99.90
10451;DHT22;5273;51.290;6.918;2022-08-01T04:53:03;20.00;99.90
10451;DHT22;5273;51.290;6.918;2022-08-01T04:55:30;20.00;99.90
10451;DHT22;5273;51.290;6.918;2022-08-01T04:57:57;20.00;99.90
10451;DHT22;5273;51.290;6.918;2022-08-01T05:00:24;20.00;99.90
10451;DHT22;5273;51.290;6.918;2022-08-01T05:02:51;20.10;99.90
10451;DHT22;5273;51.290;6.918;2022-08-01T05:05:19;20.10;99.90
10451;DHT22;5273;51.290;6.918;2022-08-01T05:07:47;20.10;99.90
10451;DHT22;5273;51.290;6.918;2022-08-01T05:10:13;20.20;99.90
10451;DHT22;5273;51.290;6.918;2022-08-01T05:12:40;20.20;99.90
10451;DHT22;5273;51.290;6.918;2022-08-01T05:15:08;20.10;99.90
10451;DHT22;5273;51.290;6.918;2022-08-01T05:17:35;20.10;99.90
10451;DHT22;5273;51.290;6.918;2022-08-01T05:20:02;20.10;99.90
10451;DHT22;5273;51.290;6.918;2022-08-01T05:22:30;20.10;99.90
10451;DHT22;5273;51.290;6.918;2022-08-01T05:24:57;20.10;99.90
10451;DHT22;5273;51.290;6.918;2022-08-01T05:27:25;20.10;99.90
10451;DHT22;5273;51.290;6.918;2022-08-01T05:29:52;20.10;99.90
10451;DHT22;5273;51.290;6.918;2022-08-01T05:32:18;20.10;99.90
10451;DHT22;5273;51.290;6.918;2022-08-01T05:34:45;20.10;99.90
10451;DHT22;5273;51.290;6.918;2022-08-01T05:37:12;20.10;99.90
10451;DHT22;5273;51.290;6.918;2022-08-01T05:39:40;20.10;99.90
10451;DHT22;5273;51.290;6.918;2022-08-01T05:42:07;20.10;99.90
10451;DHT22;5273;51.290;6.918;2022-08-01T05:44:34;20.20;99.90
10451;DHT22;5273;51.290;6.918;2022-08-01T05:47:01;20.20;99.90
10451;DHT22;5273;51.290;6.918;2022-08-01T05:49:28;20.10;99.90
10451;DHT22;5273;51.290;6.918;2022-08-01T05:51:55;20.20;99.90
10451;DHT22;5273;51.290;6.918;2022-08-01T05:54:21;20.20;99.90
10451;DHT22;5273;51.290;6.918;2022-08-01T05:56:50;20.20;99.90
10451;DHT22;5273;51.290;6.918;2022-08-01T05:59:17;20.20;99.90
10451;DHT22;5273;51.290;6.918;2022-08-01T06:01:43;20.20;99.90
10451;DHT22;5273;51.290;6.918;2022-08-01T06:04:10;20.20;99.90
10451;DHT22;5273;51.290;6.918;2022-08-01T06:06:37;20.20;99.90
10451;DHT22;5273;51.290;6.918;2022-08-01T06:09:04;20.20;99.90
10451;DHT22;5273;51.290;6.918;2022-08-01T06:11:31;20.20;99.90
10451;DHT22;5273;51.290;6.918;2022-08-01T06:13:59;20.20;99.90
10451;DHT22;5273;51.290;6.918;2022-08-01T06:16:26;20.20;99.90
10451;DHT22;5273;51.290;6.918;2022-08-01T06:18:53;20.30;99.90
10451;DHT22;5273;51.290;6.918;2022-08-01T06:21:20;20.20;99.90
10451;DHT22;5273;51.290;6.918;2022-08-01T06:23:46;20.20;99.90
10451;DHT22;5273;51.290;6.918;2022-08-01T06:26:13;20.30;99.90
10451;DHT22;5273;51.290;6.918;2022-08-01T06:28:40;20.30;99.90
10451;DHT22;5273;51.290;6.918;2022-08-01T06:31:08;20.40;99.90
10451;DHT22;5273;51.290;6.918;2022-08-01T06:33:38;20.40;99.90
10451;DHT22;5273;51.290;6.918;2022-08-01T06:36:04;20.50;99.90
10451;DHT22;5273;51.290;6.918;2022-08-01T06:38:31;20.50;99.90
10451;DHT22;5273;51.290;6.918;2022-08-01T06:40:58;20.60;99.90
10451;DHT22;5273;51.290;6.918;2022-08-01T06:43:25;20.70;99.90
10451;DHT22;5273;51.290;6.918;2022-08-01T06:45:52;20.90;99.90
10451;DHT22;5273;51.290;6.918;2022-08-01T06:48:20;21.20;99.90
10451;DHT22;5273;51.290;6.918;2022-08-01T06:50:48;21.40;99.90
10451;DHT22;5273;51.290;6.918;2022-08-01T06:53:33;21.80;99.90
10451;DHT22;5273;51.290;6.918;2022-08-01T06:56:00;22.20;99.90
10451;DHT22;5273;51.290;6.918;2022-08-01T06:58:26;22.50;99.90
10451;DHT22;5273;51.290;6.918;2022-08-01T07:00:53;22.90;99.90
10451;DHT22;5273;51.290;6.918;2022-08-01T07:03:21;23.20;99.90
10451;DHT22;5273;51.290;6.918;2022-08-01T07:05:48;23.40;99.90
10451;DHT22;5273;51.290;6.918;2022-08-01T07:08:15;24.10;99.90
10451;DHT22;5273;51.290;6.918;2022-08-01T07:10:42;25.00;99.90
10451;DHT22;5273;51.290;6.918;2022-08-01T07:13:09;25.50;99.20
10451;DHT22;5273;51.290;6.918;2022-08-01T07:15:37;25.90;97.80
10451;DHT22;5273;51.290;6.918;2022-08-01T07:18:04;26.50;96.00
10451;DHT22;5273;51.290;6.918;2022-08-01T07:20:32;27.20;94.10
10451;DHT22;5273;51.290;6.918;2022-08-01T07:22:59;27.80;93.10
10451;DHT22;5273;51.290;6.918;2022-08-01T07:25:26;28.30;91.50
10451;DHT22;5273;51.290;6.918;2022-08-01T07:27:53;28.60;90.50
10451;DHT22;5273;51.290;6.918;2022-08-01T07:30:20;28.80;85.80
10451;DHT22;5273;51.290;6.918;2022-08-01T07:32:47;29.00;85.40
10451;DHT22;5273;51.290;6.918;2022-08-01T07:35:14;29.20;83.60
10451;DHT22;5273;51.290;6.918;2022-08-01T07:37:42;29.80;81.30
10451;DHT22;5273;51.290;6.918;2022-08-01T07:40:10;30.50;79.40
10451;DHT22;5273;51.290;6.918;2022-08-01T07:42:37;31.40;74.50
10451;DHT22;5273;51.290;6.918;2022-08-01T07:45:04;32.20;69.60
10451;DHT22;5273;51.290;6.918;2022-08-01T07:47:31;32.60;66.00
10451;DHT22;5273;51.290;6.918;2022-08-01T07:50:02;32.40;65.80
10451;DHT22;5273;51.290;6.918;2022-08-01T07:52:30;32.10;66.10
10451;DHT22;5273;51.290;6.918;2022-08-01T07:54:58;31.60;66.00
10451;DHT22;5273;51.290;6.918;2022-08-01T07:57:25;31.20;65.80
10451;DHT22;5273;51.290;6.918;2022-08-01T07:59:52;30.90;67.90
10451;DHT22;5273;51.290;6.918;2022-08-01T08:02:19;31.00;68.00
10451;DHT22;5273;51.290;6.918;2022-08-01T08:04:45;31.00;67.50
10451;DHT22;5273;51.290;6.918;2022-08-01T08:07:12;31.20;65.80
10451;DHT22;5273;51.290;6.918;2022-08-01T08:09:39;31.40;64.10
10451;DHT22;5273;51.290;6.918;2022-08-01T08:12:09;31.40;64.80
10451;DHT22;5273;51.290;6.918;2022-08-01T08:14:36;31.90;63.30
10451;DHT22;5273;51.290;6.918;2022-08-01T08:17:03;32.10;62.20
10451;DHT22;5273;51.290;6.918;2022-08-01T08:19:30;31.80;60.10
10451;DHT22;5273;51.290;6.918;2022-08-01T08:21:58;31.50;60.50
10451;DHT22;5273;51.290;6.918;2022-08-01T08:24:25;31.10;62.70
10451;DHT22;5273;51.290;6.918;2022-08-01T08:26:54;30.70;63.60
10451;DHT22;5273;51.290;6.918;2022-08-01T08:29:24;30.40;63.50
10451;DHT22;5273;51.290;6.918;2022-08-01T08:31:52;30.10;65.50
10451;DHT22;5273;51.290;6.918;2022-08-01T08:34:20;30.30;64.40
10451;DHT22;5273;51.290;6.918;2022-08-01T08:36:47;30.70;63.70
10451;DHT22;5273;51.290;6.918;2022-08-01T08:39:13;30.90;63.70
10451;DHT22;5273;51.290;6.918;2022-08-01T08:41:40;30.80;62.50
10451;DHT22;5273;51.290;6.918;2022-08-01T08:44:08;30.50;62.90
10451;DHT22;5273;51.290;6.918;2022-08-01T08:46:40;30.10;63.20
10451;DHT22;5273;51.290;6.918;2022-08-01T08:49:08;30.40;64.20
10451;DHT22;5273;51.290;6.918;2022-08-01T08:51:38;30.70;62.30
10451;DHT22;5273;51.290;6.918;2022-08-01T08:54:06;30.50;60.50
10451;DHT22;5273;51.290;6.918;2022-08-01T08:56:34;29.90;63.00
10451;DHT22;5273;51.290;6.918;2022-08-01T08:59:02;29.50;65.00
10451;DHT22;5273;51.290;6.918;2022-08-01T09:01:31;29.00;66.20
10451;DHT22;5273;51.290;6.918;2022-08-01T09:04:02;28.70;68.90
10451;DHT22;5273;51.290;6.918;2022-08-01T09:06:29;28.40;70.80
10451;DHT22;5273;51.290;6.918;2022-08-01T09:08:56;28.80;71.40
10451;DHT22;5273;51.290;6.918;2022-08-01T09:11:23;29.70;68.60
10451;DHT22;5273;51.290;6.918;2022-08-01T09:14:05;30.60;63.70
10451;DHT22;5273;51.290;6.918;2022-08-01T09:16:34;31.70;62.60
10451;DHT22;5273;51.290;6.918;2022-08-01T09:19:13;32.80;59.30
10451;DHT22;5273;51.290;6.918;2022-08-01T09:21:56;33.70;56.70
10451;DHT22;5273;51.290;6.918;2022-08-01T09:24:24;34.00;53.70
10451;DHT22;5273;51.290;6.918;2022-08-01T09:26:52;33.60;53.00
10451;DHT22;5273;51.290;6.918;2022-08-01T09:29:21;33.00;53.80
10451;DHT22;5273;51.290;6.918;2022-08-01T09:31:48;32.30;54.50
10451;DHT22;5273;51.290;6.918;2022-08-01T09:34:23;31.80;55.00
10451;DHT22;5273;51.290;6.918;2022-08-01T09:36:51;31.40;55.40
10451;DHT22;5273;51.290;6.918;2022-08-01T09:39:22;30.90;56.80
10451;DHT22;5273;51.290;6.918;2022-08-01T09:41:49;30.50;58.00
10451;DHT22;5273;51.290;6.918;2022-08-01T09:44:17;30.00;59.10
10451;DHT22;5273;51.290;6.918;2022-08-01T09:46:50;29.60;60.60
10451;DHT22;5273;51.290;6.918;2022-08-01T09:49:28;29.10;60.30
10451;DHT22;5273;51.290;6.918;2022-08-01T09:51:57;28.70;62.90
10451;DHT22;5273;51.290;6.918;2022-08-01T09:54:29;28.80;63.00
10451;DHT22;5273;51.290;6.918;2022-08-01T09:57:07;28.90;64.50
10451;DHT22;5273;51.290;6.918;2022-08-01T09:59:35;29.20;63.50
10451;DHT22;5273;51.290;6.918;2022-08-01T10:02:03;29.30;61.90
10451;DHT22;5273;51.290;6.918;2022-08-01T10:04:31;29.50;62.10
10451;DHT22;5273;51.290;6.918;2022-08-01T10:07:05;30.20;59.20
10451;DHT22;5273;51.290;6.918;2022-08-01T10:09:35;30.90;59.00
10451;DHT22;5273;51.290;6.918;2022-08-01T10:12:03;31.60;56.50
10451;DHT22;5273;51.290;6.918;2022-08-01T10:14:31;32.50;55.80
10451;DHT22;5273;51.290;6.918;2022-08-01T10:16:59;33.60;53.70
10451;DHT22;5273;51.290;6.918;2022-08-01T10:19:27;34.40;51.50
10451;DHT22;5273;51.290;6.918;2022-08-01T10:21:56;34.80;48.80
10451;DHT22;5273;51.290;6.918;2022-08-01T10:24:26;35.30;46.50
10451;DHT22;5273;51.290;6.918;2022-08-01T10:26:57;35.90;45.40
10451;DHT22;5273;51.290;6.918;2022-08-01T10:29:33;36.10;45.60
10451;DHT22;5273;51.290;6.918;2022-08-01T10:32:01;36.50;44.10
10451;DHT22;5273;51.290;6.918;2022-08-01T10:34:30;36.40;42.50
10451;DHT22;5273;51.290;6.918;2022-08-01T10:36:59;36.50;43.60
10451;DHT22;5273;51.290;6.918;2022-08-01T10:39:26;36.60;43.40
10451;DHT22;5273;51.290;6.918;2022-08-01T10:41:55;37.00;43.70
10451;DHT22;5273;51.290;6.918;2022-08-01T10:44:23;37.40;42.10
10451;DHT22;5273;51.290;6.918;2022-08-01T10:46:54;37.70;41.10
10451;DHT22;5273;51.290;6.918;2022-08-01T10:49:26;37.50;38.90
10451;DHT22;5273;51.290;6.918;2022-08-01T10:51:54;37.20;40.10
10451;DHT22;5273;51.290;6.918;2022-08-01T10:54:26;36.90;39.20
10451;DHT22;5273;51.290;6.918;2022-08-01T10:56:53;36.50;39.80
10451;DHT22;5273;51.290;6.918;2022-08-01T10:59:24;36.20;40.70
10451;DHT22;5273;51.290;6.918;2022-08-01T11:01:58;36.00;42.90
10451;DHT22;5273;51.290;6.918;2022-08-01T11:04:34;35.90;41.70
10451;DHT22;5273;51.290;6.918;2022-08-01T11:07:07;35.50;40.70
10451;DHT22;5273;51.290;6.918;2022-08-01T11:09:43;35.10;41.30
10451;DHT22;5273;51.290;6.918;2022-08-01T11:12:12;34.50;41.50
10451;DHT22;5273;51.290;6.918;2022-08-01T11:15:17;34.30;42.20
10451;DHT22;5273;51.290;6.918;2022-08-01T11:17:50;34.10;40.20
10451;DHT22;5273;51.290;6.918;2022-08-01T11:20:18;34.00;41.10
10451;DHT22;5273;51.290;6.918;2022-08-01T11:23:15;33.90;41.40
10451;DHT22;5273;51.290;6.918;2022-08-01T11:29:12;33.50;41.90
10451;DHT22;5273;51.290;6.918;2022-08-01T11:31:39;33.20;41.90
10451;DHT22;5273;51.290;6.918;2022-08-01T11:34:06;33.10;43.00
10451;DHT22;5273;51.290;6.918;2022-08-01T11:36:33;32.80;43.20
10451;DHT22;5273;51.290;6.918;2022-08-01T11:39:14;32.70;43.20
10451;DHT22;5273;51.290;6.918;2022-08-01T11:41:43;32.50;44.20
10451;DHT22;5273;51.290;6.918;2022-08-01T11:44:13;32.40;45.40
10451;DHT22;5273;51.290;6.918;2022-08-01T11:47:02;32.30;43.80
10451;DHT22;5273;51.290;6.918;2022-08-01T11:49:46;32.20;43.60
10451;DHT22;5273;51.290;6.918;2022-08-01T11:52:17;32.10;46.90
10451;DHT22;5273;51.290;6.918;2022-08-01T11:54:46;32.00;44.20
10451;DHT22;5273;51.290;6.918;2022-08-01T11:57:17;32.00;45.20
10451;DHT22;5273;51.290;6.918;2022-08-01T11:59:46;31.80;48.30
10451;DHT22;5273;51.290;6.918;2022-08-01T12:02:24;31.70;50.50
10451;DHT22;5273;51.290;6.918;2022-08-01T12:04:54;31.60;52.50
10451;DHT22;5273;51.290;6.918;2022-08-01T12:07:23;31.60;52.20
10451;DHT22;5273;51.290;6.918;2022-08-01T12:09:58;31.70;52.70
10451;DHT22;5273;51.290;6.918;2022-08-01T12:12:27;31.70;52.40
10451;DHT22;5273;51.290;6.918;2022-08-01T12:14:57;31.60;53.10
10451;DHT22;5273;51.290;6.918;2022-08-01T12:17:31;31.50;51.30
10451;DHT22;5273;51.290;6.918;2022-08-01T12:19:59;31.40;53.00
10451;DHT22;5273;51.290;6.918;2022-08-01T12:22:26;31.40;53.30
10451;DHT22;5273;51.290;6.918;2022-08-01T12:24:53;31.40;52.10
10451;DHT22;5273;51.290;6.918;2022-08-01T12:27:27;31.50;52.80
10451;DHT22;5273;51.290;6.918;2022-08-01T12:29:56;31.60;53.30
10451;DHT22;5273;51.290;6.918;2022-08-01T12:32:26;31.80;52.70
10451;DHT22;5273;51.290;6.918;2022-08-01T12:34:55;31.80;50.60
10451;DHT22;5273;51.290;6.918;2022-08-01T12:37:23;31.80;50.50
10451;DHT22;5273;51.290;6.918;2022-08-01T12:39:50;31.60;51.20
10451;DHT22;5273;51.290;6.918;2022-08-01T12:42:17;31.50;50.00
10451;DHT22;5273;51.290;6.918;2022-08-01T12:44:46;31.30;50.60
10451;DHT22;5273;51.290;6.918;2022-08-01T12:47:15;31.10;50.70
10451;DHT22;5273;51.290;6.918;2022-08-01T12:49:43;31.10;52.10
10451;DHT22;5273;51.290;6.918;2022-08-01T12:52:11;31.10;53.20
10451;DHT22;5273;51.290;6.918;2022-08-01T12:55:05;31.00;51.90
10451;DHT22;5273;51.290;6.918;2022-08-01T12:57:34;31.00;49.50
10451;DHT22;5273;51.290;6.918;2022-08-01T13:00:12;31.00;49.50
10451;DHT22;5273;51.290;6.918;2022-08-01T13:02:41;31.10;50.70
10451;DHT22;5273;51.290;6.918;2022-08-01T13:05:09;31.30;50.90
10451;DHT22;5273;51.290;6.918;2022-08-01T13:07:42;31.50;50.80
10451;DHT22;5273;51.290;6.918;2022-08-01T13:10:10;31.50;50.60
10451;DHT22;5273;51.290;6.918;2022-08-01T13:12:38;31.40;48.60
10451;DHT22;5273;51.290;6.918;2022-08-01T13:15:25;31.30;47.60
10451;DHT22;5273;51.290;6.918;2022-08-01T13:17:54;31.20;47.50
10451;DHT22;5273;51.290;6.918;2022-08-01T13:20:26;31.30;48.80
10451;DHT22;5273;51.290;6.918;2022-08-01T13:22:53;31.30;50.10
10451;DHT22;5273;51.290;6.918;2022-08-01T13:25:20;31.40;50.40
10451;DHT22;5273;51.290;6.918;2022-08-01T13:27:47;31.30;49.80
10451;DHT22;5273;51.290;6.918;2022-08-01T13:30:14;31.10;48.10
10451;DHT22;5273;51.290;6.918;2022-08-01T13:32:43;31.00;50.40
10451;DHT22;5273;51.290;6.918;2022-08-01T13:35:12;30.90;50.70
10451;DHT22;5273;51.290;6.918;2022-08-01T13:37:42;30.80;51.30
10451;DHT22;5273;51.290;6.918;2022-08-01T13:40:10;30.70;50.80
10451;DHT22;5273;51.290;6.918;2022-08-01T13:42:38;30.30;53.30
10451;DHT22;5273;51.290;6.918;2022-08-01T13:45:06;30.20;53.50
10451;DHT22;5273;51.290;6.918;2022-08-01T13:47:36;30.20;53.80
10451;DHT22;5273;51.290;6.918;2022-08-01T13:50:03;30.10;54.50
10451;DHT22;5273;51.290;6.918;2022-08-01T13:52:31;30.10;53.20
10451;DHT22;5273;51.290;6.918;2022-08-01T13:54:59;29.90;53.10
10451;DHT22;5273;51.290;6.918;2022-08-01T13:57:26;29.80;52.90
10451;DHT22;5273;51.290;6.918;2022-08-01T13:59:53;29.80;53.90
10451;DHT22;5273;51.290;6.918;2022-08-01T14:02:20;29.80;55.10
10451;DHT22;5273;51.290;6.918;2022-08-01T14:04:47;29.90;54.40
10451;DHT22;5273;51.290;6.918;2022-08-01T14:07:13;29.90;54.40
10451;DHT22;5273;51.290;6.918;2022-08-01T14:09:42;29.80;54.30
10451;DHT22;5273;51.290;6.918;2022-08-01T14:12:09;29.60;53.30
10451;DHT22;5273;51.290;6.918;2022-08-01T14:14:36;29.50;54.20
10451;DHT22;5273;51.290;6.918;2022-08-01T14:17:04;29.60;54.60
10451;DHT22;5273;51.290;6.918;2022-08-01T14:19:31;29.50;55.50
10451;DHT22;5273;51.290;6.918;2022-08-01T14:21:57;29.60;56.30
10451;DHT22;5273;51.290;6.918;2022-08-01T14:24:24;29.50;56.70
10451;DHT22;5273;51.290;6.918;2022-08-01T14:26:54;29.60;56.40
10451;DHT22;5273;51.290;6.918;2022-08-01T14:29:20;29.70;56.40
10451;DHT22;5273;51.290;6.918;2022-08-01T14:31:47;29.70;56.50
10451;DHT22;5273;51.290;6.918;2022-08-01T14:34:14;29.70;55.80
10451;DHT22;5273;51.290;6.918;2022-08-01T14:36:41;29.70;55.70
10451;DHT22;5273;51.290;6.918;2022-08-01T14:39:08;29.70;56.20
10451;DHT22;5273;51.290;6.918;2022-08-01T14:41:35;29.70;55.40
10451;DHT22;5273;51.290;6.918;2022-08-01T14:44:04;29.70;54.90
10451;DHT22;5273;51.290;6.918;2022-08-01T14:46:31;29.70;55.20
10451;DHT22;5273;51.290;6.918;2022-08-01T14:48:58;29.60;55.50
10451;DHT22;5273;51.290;6.918;2022-08-01T14:51:25;29.50;55.60
10451;DHT22;5273;51.290;6.918;2022-08-01T14:53:51;29.50;56.20
10451;DHT22;5273;51.290;6.918;2022-08-01T14:56:19;29.50;56.30
10451;DHT22;5273;51.290;6.918;2022-08-01T14:58:46;29.40;56.80
10451;DHT22;5273;51.290;6.918;2022-08-01T15:01:14;29.30;56.20
10451;DHT22;5273;51.290;6.918;2022-08-01T15:03:42;29.30;56.50
10451;DHT22;5273;51.290;6.918;2022-08-01T15:06:09;29.30;55.70
10451;DHT22;5273;51.290;6.918;2022-08-01T15:08:37;29.20;56.20
10451;DHT22;5273;51.290;6.918;2022-08-01T15:11:04;29.30;55.70
10451;DHT22;5273;51.290;6.918;2022-08-01T15:13:31;29.20;56.10
10451;DHT22;5273;51.290;6.918;2022-08-01T15:15:58;29.10;56.20
10451;DHT22;5273;51.290;6.918;2022-08-01T15:18:26;29.10;56.90
10451;DHT22;5273;51.290;6.918;2022-08-01T15:20:53;29.10;56.10
10451;DHT22;5273;51.290;6.918;2022-08-01T15:23:20;29.20;56.50
10451;DHT22;5273;51.290;6.918;2022-08-01T15:25:47;29.20;56.60
10451;DHT22;5273;51.290;6.918;2022-08-01T15:28:14;29.20;57.10
10451;DHT22;5273;51.290;6.918;2022-08-01T15:30:41;29.20;57.00
10451;DHT22;5273;51.290;6.918;2022-08-01T15:33:07;29.20;56.80
10451;DHT22;5273;51.290;6.918;2022-08-01T15:35:36;29.10;57.20
10451;DHT22;5273;51.290;6.918;2022-08-01T15:38:03;29.00;56.50
10451;DHT22;5273;51.290;6.918;2022-08-01T15:40:29;28.90;57.70
10451;DHT22;5273;51.290;6.918;2022-08-01T15:43:00;28.90;55.90
10451;DHT22;5273;51.290;6.918;2022-08-01T15:45:26;28.80;57.10
10451;DHT22;5273;51.290;6.918;2022-08-01T15:47:54;28.50;56.70
10451;DHT22;5273;51.290;6.918;2022-08-01T15:50:21;28.50;56.90
10451;DHT22;5273;51.290;6.918;2022-08-01T15:52:50;28.40;56.80
10451;DHT22;5273;51.290;6.918;2022-08-01T15:55:17;28.30;56.70
10451;DHT22;5273;51.290;6.918;2022-08-01T15:57:46;28.30;58.20
10451;DHT22;5273;51.290;6.918;2022-08-01T16:00:17;28.20;59.40